Time;durP1;ratioP1;P1;durP2;ratioP2;P2;SDS_P1;SDS_P2;PMS_P1;PMS_P2;Temp;Humidity;BMP_temperature;BMP_pressure;BME280_temperature;BME280_humidity;BME280_pressure;Samples;Min_cycle;Max_cycle;Signal;HPM_P1;HPM_P2
2022/09/30 00:02:01;;;;;;;19.95;12.05;;;;;;;5.01;100.00;100805.31;5286280;28;20019;-72
2022/09/30 00:04:31;;;;;;;21.92;13.25;;;;;;;4.94;100.00;100805.00;5275345;28;20061;-72
2022/09/30 00:07:02;;;;;;;20.88;13.20;;;;;;;4.90;100.00;100803.56;5268528;28;20060;-72
2022/09/30 00:09:32;;;;;;;22.83;13.52;;;;;;;4.88;100.00;100805.53;5281293;28;20055;-71
2022/09/30 00:12:03;;;;;;;24.88;13.73;;;;;;;4.85;100.00;100803.13;5270343;28;20020;-71
2022/09/30 00:14:34;;;;;;;23.83;14.00;;;;;;;4.82;100.00;100801.59;5271498;28;20024;-71
2022/09/30 00:17:04;;;;;;;24.55;13.52;;;;;;;4.81;100.00;100807.84;5276741;28;20024;-71
2022/09/30 00:19:35;;;;;;;22.85;13.10;;;;;;;4.79;100.00;100808.97;5273055;28;20024;-72
2022/09/30 00:22:05;;;;;;;20.90;12.70;;;;;;;4.73;100.00;100805.00;5287972;28;20082;-72
2022/09/30 00:24:35;;;;;;;22.33;12.80;;;;;;;4.70;100.00;100799.94;5286604;28;20429;-71
2022/09/30 00:27:06;;;;;;;27.48;14.20;;;;;;;4.68;100.00;100799.25;5274059;27;20107;-70
2022/09/30 00:29:37;;;;;;;41.63;14.23;;;;;;;4.66;100.00;100804.66;5287552;28;20107;-72
2022/09/30 00:32:07;;;;;;;25.27;13.57;;;;;;;4.64;100.00;100808.44;5282314;28;20028;-70
2022/09/30 00:34:38;;;;;;;22.75;14.00;;;;;;;4.63;100.00;100807.59;5281973;28;20131;-72
2022/09/30 00:37:10;;;;;;;21.85;12.65;;;;;;;4.66;100.00;100809.13;5253233;28;20020;-71
2022/09/30 00:39:40;;;;;;;21.88;13.57;;;;;;;4.66;100.00;100817.13;5266059;28;20089;-71
2022/09/30 00:42:13;;;;;;;35.10;12.63;;;;;;;4.62;100.00;100815.72;5266682;28;20016;-72
2022/09/30 00:44:49;;;;;;;20.88;12.07;;;;;;;4.51;100.00;100805.94;5265500;28;20073;-72
2022/09/30 00:47:32;;;;;;;24.65;13.95;;;;;;;4.46;100.00;100805.50;5266282;28;20553;-72
2022/09/30 00:50:14;;;;;;;280.17;26.02;;;;;;;4.41;100.00;100805.03;5268791;28;20388;-71
2022/09/30 00:52:50;;;;;;;46.97;14.13;;;;;;;4.36;100.00;100807.22;5287864;28;20035;-72
2022/09/30 00:55:45;;;;;;;32.58;13.85;;;;;;;4.31;100.00;100806.75;5283784;28;20031;-71
2022/09/30 00:58:26;;;;;;;27.42;13.32;;;;;;;4.30;100.00;100813.91;5269391;28;20020;-72
2022/09/30 01:00:58;;;;;;;21.48;12.98;;;;;;;4.29;100.00;100808.72;5266510;28;20114;-71
2022/09/30 01:03:32;;;;;;;20.50;12.75;;;;;;;4.25;100.00;100799.31;5272273;28;20028;-72
2022/09/30 01:06:03;;;;;;;24.60;13.60;;;;;;;4.22;100.00;100810.19;5286267;28;20055;-72
2022/09/30 01:08:36;;;;;;;26.67;14.18;;;;;;;4.19;100.00;100808.63;5278860;28;20408;-72
2022/09/30 01:11:07;;;;;;;28.13;13.82;;;;;;;4.14;100.00;100808.16;5266033;28;20055;-73
2022/09/30 01:13:40;;;;;;;29.10;15.52;;;;;;;4.11;100.00;100805.75;5266450;28;20541;-72
2022/09/30 01:16:53;;;;;;;26.35;15.50;;;;;;;4.11;100.00;100813.72;5255484;28;20107;-72
2022/09/30 01:19:42;;;;;;;28.98;16.08;;;;;;;4.10;100.00;100812.88;5283574;28;20130;-72
2022/09/30 01:22:18;;;;;;;24.90;14.15;;;;;;;4.10;100.00;100806.72;5279745;28;20125;-72
2022/09/30 01:25:01;;;;;;;23.73;13.73;;;;;;;4.08;100.00;100808.69;5260269;28;20058;-72
2022/09/30 01:28:05;;;;;;;24.83;14.07;;;;;;;4.05;100.00;100816.88;5277108;27;20027;-71
2022/09/30 01:31:06;;;;;;;27.42;14.52;;;;;;;4.04;100.00;100812.53;5284250;28;20158;-72
2022/09/30 01:33:58;;;;;;;28.95;15.07;;;;;;;4.05;100.00;100816.88;5280042;28;20027;-71
2022/09/30 01:36:42;;;;;;;35.47;15.48;;;;;;;4.04;100.00;100817.84;5254412;28;20025;-71
2022/09/30 01:39:40;;;;;;;25.13;14.75;;;;;;;4.00;100.00;100822.56;5264653;28;20321;-72
2022/09/30 01:42:35;;;;;;;29.08;14.82;;;;;;;3.99;100.00;100823.53;5234197;28;20040;-72
2022/09/30 01:45:31;;;;;;;26.55;15.35;;;;;;;3.99;100.00;100817.38;5265979;28;20051;-72
2022/09/30 01:48:12;;;;;;;28.83;16.60;;;;;;;3.97;100.00;100820.16;5286812;28;20026;-71
2022/09/30 01:51:31;;;;;;;30.23;15.98;;;;;;;3.96;100.00;100818.47;5277862;28;20035;-71
2022/09/30 01:54:17;;;;;;;25.13;14.57;;;;;;;3.95;100.00;100813.28;5211767;28;20581;-72
2022/09/30 01:57:04;;;;;;;27.25;14.25;;;;;;;3.93;100.00;100809.94;5263761;28;20026;-71
2022/09/30 01:59:42;;;;;;;23.20;13.65;;;;;;;3.90;100.00;100814.50;5265568;28;20451;-71
2022/09/30 02:02:49;;;;;;;26.58;15.55;;;;;;;3.91;100.00;100807.38;5262060;28;20060;-71
2022/09/30 02:05:27;;;;;;;24.90;14.70;;;;;;;3.92;100.00;100824.16;5251792;28;20111;-70
2022/09/30 02:08:18;;;;;;;23.85;14.35;;;;;;;3.89;100.00;100812.81;5281707;28;20542;-71
2022/09/30 02:11:03;;;;;;;31.75;14.40;;;;;;;3.87;100.00;100812.09;5286553;28;20031;-70
2022/09/30 02:13:59;;;;;;;24.67;14.27;;;;;;;3.82;100.00;100824.91;5286343;28;20388;-70
2022/09/30 02:16:47;;;;;;;27.87;15.73;;;;;;;3.76;100.00;100814.75;5270909;28;20016;-71
2022/09/30 02:19:29;;;;;;;23.13;13.23;;;;;;;3.73;100.00;100820.34;5283183;28;21220;-71
2022/09/30 02:22:22;;;;;;;31.65;13.25;;;;;;;3.76;100.00;100836.00;5265148;28;20023;-71
2022/09/30 02:25:00;;;;;;;31.10;14.10;;;;;;;3.81;100.00;100831.16;5264659;28;20032;-71
2022/09/30 02:27:41;;;;;;;24.13;12.38;;;;;;;3.81;100.00;100827.66;5272774;28;20017;-71
2022/09/30 02:30:12;;;;;;;22.95;11.98;;;;;;;3.75;100.00;100826.34;5251548;28;20031;-71
2022/09/30 02:32:54;;;;;;;22.35;13.32;;;;;;;3.71;100.00;100824.91;5263042;28;20106;-71
2022/09/30 02:35:38;;;;;;;26.85;14.07;;;;;;;3.69;100.00;100826.00;5273496;28;20032;-71
2022/09/30 02:38:29;;;;;;;27.90;12.85;;;;;;;3.63;100.00;100817.56;5264664;28;20099;-71
2022/09/30 02:41:25;;;;;;;20.80;12.93;;;;;;;3.59;100.00;100809.97;5264858;28;20047;-71
2022/09/30 02:43:56;;;;;;;;;;;;;;;3.53;100.00;100813.97;5264842;28;20097;-71
2022/09/30 02:46:36;;;;;;;17.13;11.15;;;;;;;3.50;100.00;100826.59;5263731;28;19974;-71
2022/09/30 02:49:31;;;;;;;25.38;14.93;;;;;;;3.53;100.00;100826.38;5265347;28;20039;-71
2022/09/30 02:52:19;;;;;;;21.88;13.13;;;;;;;3.57;100.00;100826.03;5292304;27;20019;-71
2022/09/30 02:55:26;;;;;;;27.45;13.63;;;;;;;3.54;100.00;100820.09;5287091;28;20027;-71
2022/09/30 02:58:15;;;;;;;25.98;13.55;;;;;;;3.50;100.00;100818.66;5292797;27;20015;-70
2022/09/30 03:00:49;;;;;;;33.65;15.88;;;;;;;3.46;100.00;100818.03;5292818;27;20037;-70
2022/09/30 03:03:27;;;;;;;64.97;14.23;;;;;;;3.41;100.00;100824.69;5272957;27;20478;-70
2022/09/30 03:05:58;;;;;;;130.95;17.38;;;;;;;3.35;100.00;100821.53;5270518;28;20423;-70
2022/09/30 03:08:29;;;;;;;30.98;12.93;;;;;;;3.32;100.00;100827.09;5292133;27;20099;-70
2022/09/30 03:10:59;;;;;;;26.77;14.18;;;;;;;3.30;100.00;100829.00;5292588;27;20030;-70
2022/09/30 03:13:42;;;;;;;22.15;13.10;;;;;;;3.29;100.00;100834.44;5283102;27;20028;-71
2022/09/30 03:16:37;;;;;;;28.23;13.88;;;;;;;3.30;100.00;100834.31;5284184;28;20051;-71
2022/09/30 03:19:29;;;;;;;25.77;15.05;;;;;;;3.29;100.00;100845.06;5271411;28;20030;-70
2022/09/30 03:22:22;;;;;;;24.17;14.80;;;;;;;3.28;100.00;100846.88;5271956;28;20024;-71
2022/09/30 03:24:58;;;;;;;29.30;14.13;;;;;;;3.27;100.00;100849.66;5259879;28;20020;-71
2022/09/30 03:27:59;;;;;;;32.10;15.50;;;;;;;3.26;100.00;100838.19;5259618;28;20240;-71
2022/09/30 03:30:32;;;;;;;30.00;15.98;;;;;;;3.28;100.00;100846.03;5259447;28;20104;-71
2022/09/30 03:33:06;;;;;;;31.15;16.63;;;;;;;3.25;100.00;100841.78;5287129;27;20522;-70
2022/09/30 03:36:07;;;;;;;29.10;14.98;;;;;;;3.22;100.00;100843.84;5273092;27;20020;-70
2022/09/30 03:39:03;;;;;;;33.00;14.82;;;;;;;3.19;100.00;100846.72;5285844;28;20023;-71
2022/09/30 03:41:55;;;;;;;29.53;15.73;;;;;;;3.18;100.00;100845.91;5278502;28;20032;-70
2022/09/30 03:44:41;;;;;;;27.40;15.27;;;;;;;3.20;100.00;100859.88;5280215;28;20342;-70
2022/09/30 03:47:16;;;;;;;28.15;15.88;;;;;;;3.22;100.00;100860.59;5292280;27;20028;-71
2022/09/30 03:49:54;;;;;;;26.33;14.23;;;;;;;3.21;100.00;100868.66;5292208;27;20024;-70
2022/09/30 03:52:29;;;;;;;27.40;14.25;;;;;;;3.16;100.00;100862.88;5283905;27;20027;-70
2022/09/30 03:55:02;;;;;;;23.08;13.88;;;;;;;3.11;100.00;100865.88;5286632;28;20035;-70
2022/09/30 03:57:33;;;;;;;26.25;13.82;;;;;;;3.08;100.00;100866.97;5281939;27;20020;-70
2022/09/30 04:00:06;;;;;;;27.33;15.10;;;;;;;3.06;100.00;100868.91;5286651;28;20495;-70
2022/09/30 04:02:36;;;;;;;30.02;15.07;;;;;;;3.05;100.00;100869.00;5282314;28;20116;-70
2022/09/30 04:05:07;;;;;;;26.80;14.65;;;;;;;3.05;100.00;100875.13;5286121;28;20115;-71
2022/09/30 04:07:37;;;;;;;24.48;13.70;;;;;;;3.02;100.00;100880.69;5274229;28;20027;-71
2022/09/30 04:10:08;;;;;;;23.52;13.30;;;;;;;3.01;100.00;100886.09;5281913;28;20020;-71
2022/09/30 04:12:39;;;;;;;26.85;14.50;;;;;;;3.00;100.00;100892.34;5282599;28;20092;-71
2022/09/30 04:15:09;;;;;;;28.88;14.35;;;;;;;3.00;100.00;100895.00;5287914;27;20131;-71
2022/09/30 04:17:40;;;;;;;27.50;14.48;;;;;;;3.02;100.00;100895.75;5289393;28;20034;-71
2022/09/30 04:20:11;;;;;;;24.67;14.48;;;;;;;3.04;100.00;100901.75;5279473;28;20026;-70
2022/09/30 04:22:42;;;;;;;27.65;14.48;;;;;;;3.03;100.00;100900.09;5274497;28;20035;-70
2022/09/30 04:25:12;;;;;;;25.67;13.10;;;;;;;3.02;100.00;100901.91;5289739;28;20055;-70
2022/09/30 04:27:43;;;;;;;28.30;13.13;;;;;;;2.98;100.00;100903.09;5266115;28;20436;-70
2022/09/30 04:30:13;;;;;;;28.98;13.82;;;;;;;2.97;100.00;100904.03;5267100;28;20378;-71
2022/09/30 04:32:44;;;;;;;28.95;13.80;;;;;;;2.95;100.00;100908.59;5279592;28;20019;-69
2022/09/30 04:35:15;;;;;;;28.65;14.18;;;;;;;2.93;100.00;100901.75;5277076;28;20024;-70
2022/09/30 04:37:46;;;;;;;30.15;14.73;;;;;;;2.92;100.00;100905.34;5275387;28;20485;-71
2022/09/30 04:40:16;;;;;;;32.25;15.30;;;;;;;2.91;100.00;100912.44;5271037;28;20043;-70
2022/09/30 04:42:47;;;;;;;28.73;14.68;;;;;;;2.92;100.00;100919.44;5266483;28;20120;-71
2022/09/30 04:45:17;;;;;;;27.40;14.00;;;;;;;2.92;100.00;100922.09;5269575;28;20023;-71
2022/09/30 04:47:47;;;;;;;32.83;14.82;;;;;;;2.91;100.00;100916.88;5287244;28;20072;-72
2022/09/30 04:50:18;;;;;;;105.00;16.55;;;;;;;2.89;100.00;100919.66;5287613;28;20030;-71
2022/09/30 04:52:49;;;;;;;23.45;13.30;;;;;;;2.88;100.00;100928.59;5286906;28;20024;-71
2022/09/30 04:55:19;;;;;;;20.92;13.20;;;;;;;2.87;100.00;100923.41;5285168;28;20023;-71
2022/09/30 04:57:50;;;;;;;21.73;12.75;;;;;;;2.86;100.00;100914.59;5273920;27;20020;-71
2022/09/30 05:00:20;;;;;;;26.90;15.10;;;;;;;2.87;100.00;100918.94;5285895;28;20027;-71
2022/09/30 05:02:51;;;;;;;33.50;16.92;;;;;;;2.88;100.00;100923.28;5272527;28;20082;-71
2022/09/30 05:05:22;;;;;;;28.73;14.68;;;;;;;2.89;100.00;100924.97;5285951;28;20030;-71
2022/09/30 05:07:53;;;;;;;55.00;17.27;;;;;;;2.87;100.00;100921.59;5287099;28;20473;-70
2022/09/30 05:10:23;;;;;;;36.40;17.02;;;;;;;2.85;100.00;100934.09;5277547;28;20579;-70
2022/09/30 05:12:54;;;;;;;36.20;17.65;;;;;;;2.83;100.00;100939.53;5282336;28;20024;-70
2022/09/30 05:15:25;;;;;;;34.45;16.20;;;;;;;2.80;100.00;100933.59;5286008;28;20051;-71
2022/09/30 05:17:56;;;;;;;35.83;17.13;;;;;;;2.75;100.00;100936.59;5273035;28;20076;-71
2022/09/30 05:20:26;;;;;;;32.15;16.25;;;;;;;2.73;100.00;100949.13;5287519;27;20077;-71
2022/09/30 05:22:57;;;;;;;36.45;17.95;;;;;;;2.74;100.00;100956.09;5266930;28;20050;-70
2022/09/30 05:25:27;;;;;;;35.50;16.98;;;;;;;2.74;100.00;100958.75;5251291;28;20024;-70
2022/09/30 05:27:57;;;;;;;41.88;18.27;;;;;;;2.74;100.00;100958.75;5269653;28;20081;-71
2022/09/30 05:30:28;;;;;;;38.72;16.42;;;;;;;2.75;100.00;100957.78;5265002;28;20028;-71
2022/09/30 05:32:58;;;;;;;25.10;13.85;;;;;;;2.74;100.00;100958.75;5265616;28;20028;-70
2022/09/30 05:35:30;;;;;;;27.00;14.55;;;;;;;2.73;100.00;100962.34;5263146;28;20030;-70
2022/09/30 05:38:04;;;;;;;31.20;15.57;;;;;;;2.72;100.00;100971.28;5276107;28;20288;-69
2022/09/30 05:40:38;;;;;;;31.77;16.17;;;;;;;2.73;100.00;100978.25;5271966;28;20484;-69
2022/09/30 05:43:09;;;;;;;37.55;15.98;;;;;;;2.71;100.00;100968.72;5274168;28;20038;-69
2022/09/30 05:45:40;;;;;;;39.53;16.48;;;;;;;2.70;100.00;100973.16;5278269;28;20497;-69
2022/09/30 05:48:10;;;;;;;288.77;28.90;;;;;;;2.68;100.00;100975.09;5278891;28;20056;-69
2022/09/30 05:50:41;;;;;;;80.20;18.50;;;;;;;2.66;100.00;100987.63;5286261;28;20058;-69
2022/09/30 05:53:11;;;;;;;29.17;15.52;;;;;;;2.68;100.00;100990.16;5280726;28;20077;-70
2022/09/30 05:55:45;;;;;;;55.17;14.50;;;;;;;2.68;100.00;100990.16;5285313;28;20015;-69
2022/09/30 05:58:17;;;;;;;30.95;16.55;;;;;;;2.67;100.00;100993.75;5285895;28;20034;-70
2022/09/30 06:00:48;;;;;;;34.00;15.75;;;;;;;2.69;100.00;100986.53;5274925;27;20024;-70
2022/09/30 06:03:18;;;;;;;28.35;15.52;;;;;;;2.70;100.00;100986.41;5262241;28;20437;-69
2022/09/30 06:05:55;;;;;;;91.82;18.10;;;;;;;2.74;100.00;100998.47;5284401;28;20054;-69
2022/09/30 06:08:25;;;;;;;23.67;13.48;;;;;;;2.80;100.00;101000.69;5285493;28;20020;-69
2022/09/30 06:10:58;;;;;;;26.90;14.93;;;;;;;2.88;100.00;101004.59;5265724;28;20019;-69
2022/09/30 06:13:28;;;;;;;25.65;14.18;;;;;;;2.98;100.00;101008.25;5265252;28;20051;-69
2022/09/30 06:16:01;;;;;;;24.13;13.98;;;;;;;3.06;100.00;101008.50;5250430;28;20062;-70
2022/09/30 06:18:31;;;;;;;31.67;15.75;;;;;;;3.15;100.00;101007.00;5283893;28;20111;-69
2022/09/30 06:21:04;;;;;;;28.45;15.63;;;;;;;3.20;100.00;101008.34;5277863;28;20024;-69
2022/09/30 06:23:34;;;;;;;28.75;15.10;;;;;;;3.27;100.00;101017.53;5274240;28;20560;-69
2022/09/30 06:26:07;;;;;;;27.90;15.35;;;;;;;3.36;100.00;101018.63;5266873;28;20032;-69
2022/09/30 06:28:38;;;;;;;33.03;15.05;;;;;;;3.46;100.00;101021.44;5268518;28;20327;-69
2022/09/30 06:31:10;;;;;;;38.70;14.63;;;;;;;3.66;100.00;101018.09;5274662;28;20008;-70
2022/09/30 06:33:41;;;;;;;25.85;13.05;;;;;;;3.89;100.00;101027.81;5273021;28;20023;-69
2022/09/30 06:36:11;;;;;;;26.08;12.75;;;;;;;4.16;100.00;101024.78;5276580;28;20500;-70
2022/09/30 06:38:42;;;;;;;22.75;13.65;;;;;;;4.44;100.00;101027.09;5272891;28;20031;-70
2022/09/30 06:41:12;;;;;;;24.52;13.75;;;;;;;4.74;100.00;101027.28;5267659;28;20250;-70
2022/09/30 06:43:43;;;;;;;29.73;12.00;;;;;;;5.09;100.00;101024.41;5265482;28;20024;-70
2022/09/30 06:46:13;;;;;;;35.55;12.63;;;;;;;5.38;100.00;101024.66;5264078;28;20031;-70
2022/09/30 06:48:44;;;;;;;21.92;11.52;;;;;;;5.86;100.00;101023.28;5268618;28;20389;-70
2022/09/30 06:51:14;;;;;;;17.95;10.57;;;;;;;6.22;100.00;101028.13;5268489;28;20030;-71
2022/09/30 06:53:49;;;;;;;18.88;10.27;;;;;;;6.63;100.00;101028.97;5271407;28;20024;-71
2022/09/30 06:56:20;;;;;;;26.80;12.45;;;;;;;7.08;100.00;101019.63;5272013;28;20117;-71
2022/09/30 06:58:51;;;;;;;19.63;11.55;;;;;;;7.64;100.00;101021.59;5266456;28;20487;-71
2022/09/30 07:01:23;;;;;;;20.27;12.20;;;;;;;8.08;100.00;101036.09;5274014;28;20020;-71
2022/09/30 07:03:56;;;;;;;17.23;11.68;;;;;;;8.71;100.00;101036.28;5269081;28;20066;-71
2022/09/30 07:06:27;;;;;;;22.75;13.05;;;;;;;9.33;100.00;101025.69;5271270;28;20190;-71
2022/09/30 07:08:57;;;;;;;24.77;13.10;;;;;;;9.78;100.00;101020.19;5271617;28;20423;-71
2022/09/30 07:11:27;;;;;;;20.98;13.65;;;;;;;10.36;100.00;101019.56;5270909;28;20473;-71
2022/09/30 07:13:58;;;;;;;19.40;13.05;;;;;;;10.73;100.00;101026.41;5278100;28;20023;-71
2022/09/30 07:16:30;;;;;;;22.30;13.23;;;;;;;11.15;100.00;101020.16;5271125;28;20016;-71
2022/09/30 07:19:02;;;;;;;22.30;14.38;;;;;;;11.30;100.00;101028.41;5270636;28;20094;-71
2022/09/30 07:21:33;;;;;;;29.20;13.88;;;;;;;11.58;100.00;101031.59;5267508;28;20088;-71
2022/09/30 07:24:04;;;;;;;22.42;13.18;;;;;;;11.99;100.00;101040.47;5275032;28;20516;-72
2022/09/30 07:26:34;;;;;;;22.48;14.35;;;;;;;12.33;100.00;101036.69;5267501;28;20030;-71
2022/09/30 07:29:06;;;;;;;18.85;13.65;;;;;;;12.43;100.00;101034.66;5265997;28;20028;-71
2022/09/30 07:31:36;;;;;;;23.67;14.85;;;;;;;12.55;100.00;101029.72;5264266;28;20081;-72
2022/09/30 07:34:08;;;;;;;26.17;16.08;;;;;;;12.73;100.00;101029.47;5275884;28;20020;-72
2022/09/30 07:36:40;;;;;;;27.27;16.65;;;;;;;12.65;100.00;101031.22;5279321;28;20124;-71
2022/09/30 07:39:11;;;;;;;28.48;16.33;;;;;;;12.37;100.00;101021.91;5276338;28;20108;-71
2022/09/30 07:41:43;;;;;;;29.63;17.67;;;;;;;12.84;100.00;101023.69;5277533;27;20027;-71
2022/09/30 07:44:14;;;;;;;30.58;16.83;;;;;;;13.14;100.00;101022.84;5274128;28;20073;-72
2022/09/30 07:46:44;;;;;;;28.50;15.43;;;;;;;13.45;100.00;101016.56;5274833;27;20016;-72
2022/09/30 07:49:22;;;;;;;26.55;16.98;;;;;;;13.52;100.00;101017.53;5272877;28;20020;-72
2022/09/30 07:51:55;;;;;;;22.67;14.93;;;;;;;13.89;100.00;101023.94;5268130;28;20159;-71
2022/09/30 07:54:29;;;;;;;27.38;16.38;;;;;;;14.01;100.00;101027.88;5278242;27;20562;-71
2022/09/30 07:57:02;;;;;;;25.50;16.35;;;;;;;14.25;100.00;101029.47;5272106;28;20019;-72
2022/09/30 07:59:36;;;;;;;25.10;15.25;;;;;;;14.09;100.00;101022.38;5272748;28;20073;-72
2022/09/30 08:02:12;;;;;;;25.15;15.68;;;;;;;14.51;100.00;101023.63;5274630;27;20134;-72
2022/09/30 08:04:43;;;;;;;25.35;15.30;;;;;;;14.95;100.00;101026.22;5272585;28;20036;-71
2022/09/30 08:07:15;;;;;;;20.55;13.98;;;;;;;14.96;100.00;101014.44;5279815;28;20069;-72
2022/09/30 08:09:45;;;;;;;26.17;14.93;;;;;;;14.78;100.00;101014.00;5265528;28;20051;-72
2022/09/30 08:12:16;;;;;;;25.13;15.95;;;;;;;14.70;100.00;101012.22;5273774;28;20074;-71
2022/09/30 08:14:46;;;;;;;21.83;13.88;;;;;;;14.78;100.00;101014.00;5276754;28;20032;-73
2022/09/30 08:17:18;;;;;;;21.50;14.10;;;;;;;15.03;100.00;101009.09;5276318;27;20070;-72
2022/09/30 08:19:48;;;;;;;26.88;14.00;;;;;;;15.12;100.00;101009.81;5279210;28;20020;-72
2022/09/30 08:22:19;;;;;;;24.52;14.48;;;;;;;15.61;100.00;101020.66;5279568;28;20069;-72
2022/09/30 08:24:50;;;;;;;26.05;14.45;;;;;;;15.53;100.00;101018.94;5275184;28;20020;-72
2022/09/30 08:27:20;;;;;;;23.05;14.23;;;;;;;15.98;100.00;101021.41;5275679;28;20027;-72
2022/09/30 08:29:51;;;;;;;18.48;12.65;;;;;;;16.13;100.00;101024.84;5266895;28;20405;-72
2022/09/30 08:32:21;;;;;;;22.23;12.45;;;;;;;16.16;100.00;101024.41;5270925;28;20028;-72
2022/09/30 08:34:52;;;;;;;22.10;13.40;;;;;;;15.91;100.00;101029.44;5272572;28;20115;-72
2022/09/30 08:37:23;;;;;;;21.02;13.32;;;;;;;16.18;100.00;101026.94;5273792;28;20018;-71
2022/09/30 08:39:53;;;;;;;17.77;11.73;;;;;;;16.53;100.00;101022.34;5280249;28;20028;-71
2022/09/30 08:42:44;;;;;;;18.27;12.45;;;;;;;16.91;100.00;101021.91;5267335;27;20024;-71
2022/09/30 08:45:32;;;;;;;21.90;13.48;;;;;;;16.77;100.00;101024.59;5269560;28;20030;-72
2022/09/30 08:48:21;;;;;;;24.70;12.27;;;;;;;16.57;100.00;101023.63;5269130;28;20020;-72
2022/09/30 08:51:23;;;;;;;20.92;13.13;;;;;;;15.97;100.00;101030.56;5270486;28;20528;-71
2022/09/30 08:53:56;;;;;;;25.27;11.95;;;;;;;16.46;100.00;101022.31;5274088;28;20062;-71
2022/09/30 08:56:29;;;;;;;23.10;13.13;;;;;;;16.32;100.00;101020.59;5274670;28;20477;-72
2022/09/30 08:59:11;;;;;;;23.45;12.77;;;;;;;16.11;100.00;101013.34;5273129;27;20024;-72
2022/09/30 09:01:49;;;;;;;19.20;12.40;;;;;;;16.47;100.00;101020.47;5267893;28;20553;-71
2022/09/30 09:04:20;;;;;;;19.23;12.48;;;;;;;16.40;100.00;101033.09;5276464;28;20015;-72
2022/09/30 09:07:01;;;;;;;18.90;11.02;;;;;;;16.98;100.00;101020.91;5276949;28;20016;-72
2022/09/30 09:09:35;;;;;;;17.20;10.98;;;;;;;17.43;100.00;101014.94;5271879;28;20039;-72
2022/09/30 09:12:40;;;;;;;18.08;10.95;;;;;;;17.50;100.00;101018.47;5274147;28;20026;-72
2022/09/30 09:15:41;;;;;;;16.23;9.27;;;;;;;17.88;100.00;101015.19;5268562;28;20500;-72
2022/09/30 09:18:24;;;;;;;16.27;10.38;;;;;;;17.87;100.00;101022.47;5274236;28;20106;-72
2022/09/30 09:21:02;;;;;;;14.77;9.02;;;;;;;17.67;100.00;101024.31;5271584;28;20676;-72
2022/09/30 09:23:32;;;;;;;22.70;11.07;;;;;;;17.52;100.00;101016.38;5274428;28;20216;-72
2022/09/30 09:26:04;;;;;;;16.23;9.23;;;;;;;17.44;100.00;101017.44;5270718;28;20026;-72
2022/09/30 09:28:41;;;;;;;17.35;9.27;;;;;;;17.82;100.00;101025.84;5272458;28;20069;-72
2022/09/30 09:31:16;;;;;;;14.93;7.90;;;;;;;17.84;100.00;101018.31;5273217;28;20104;-72
2022/09/30 09:33:46;;;;;;;13.65;8.10;;;;;;;18.06;100.00;101018.91;5272921;28;20134;-72
2022/09/30 09:36:38;;;;;;;11.15;7.38;;;;;;;18.30;100.00;101022.81;5272667;28;20362;-72
2022/09/30 09:39:45;;;;;;;20.77;8.05;;;;;;;18.20;100.00;101022.44;5267720;28;20529;-72
2022/09/30 09:42:57;;;;;;;11.52;7.25;;;;;;;17.71;100.00;101029.13;5277027;28;20481;-72
2022/09/30 09:45:33;;;;;;;12.05;6.40;;;;;;;18.36;100.00;101027.38;5265005;28;20062;-72
2022/09/30 09:48:09;;;;;;;10.65;5.60;;;;;;;18.52;100.00;101027.97;5274203;28;20110;-72
2022/09/30 09:50:50;;;;;;;10.35;5.28;;;;;;;18.23;100.00;101029.34;5270174;28;20051;-72
2022/09/30 09:53:43;;;;;;;11.32;5.88;;;;;;;17.85;100.00;101028.09;5277272;28;20532;-72
2022/09/30 09:56:19;;;;;;;14.25;7.25;;;;;;;17.54;100.00;101030.59;5273805;28;20020;-72
2022/09/30 09:59:08;;;;;;;14.63;6.97;;;;;;;17.26;100.00;101028.03;5275790;28;20070;-72
2022/09/30 10:01:42;;;;;;;14.68;6.30;;;;;;;17.36;100.00;101025.75;5271634;28;20119;-72
2022/09/30 10:04:25;;;;;;;11.27;6.60;;;;;;;17.67;100.00;101029.75;5268129;28;20028;-72
2022/09/30 10:07:00;;;;;;;10.95;5.55;;;;;;;17.77;100.00;101036.47;5275452;28;20028;-72
2022/09/30 10:09:35;;;;;;;9.40;5.10;;;;;;;18.08;100.00;101030.41;5271783;27;20135;-72
2022/09/30 10:12:05;;;;;;;12.63;5.45;;;;;;;17.28;100.00;101034.09;5274180;28;20627;-72
2022/09/30 10:14:56;;;;;;;8.20;5.13;;;;;;;17.65;100.00;101034.56;5272105;28;20112;-72
2022/09/30 10:17:33;;;;;;;10.57;4.95;;;;;;;17.69;100.00;101020.38;5269499;28;20373;-72
2022/09/30 10:20:22;;;;;;;12.52;5.57;;;;;;;17.71;100.00;101026.41;5264319;28;20023;-72
2022/09/30 10:23:01;;;;;;;10.40;4.68;;;;;;;17.87;100.00;101033.31;5263735;28;20024;-72
2022/09/30 10:25:32;;;;;;;10.70;4.78;;;;;;;17.96;100.00;101032.06;5275277;28;20139;-72
2022/09/30 10:28:20;;;;;;;7.15;4.30;;;;;;;17.95;100.00;101026.84;5272104;28;20023;-72
2022/09/30 10:30:57;;;;;;;6.40;3.58;;;;;;;18.14;100.00;101039.56;5265508;28;20494;-72
2022/09/30 10:33:33;;;;;;;4.47;2.70;;;;;;;18.07;100.00;101028.72;5269042;28;20028;-72
2022/09/30 10:36:10;;;;;;;4.68;2.03;;;;;;;18.21;100.00;101029.53;5269386;28;20028;-72
2022/09/30 10:39:00;;;;;;;30.88;13.18;;;;;;;18.47;100.00;101034.03;5270512;28;20055;-72
2022/09/30 10:41:33;;;;;;;46.78;18.70;;;;;;;18.20;100.00;101033.28;5271708;28;20023;-72
2022/09/30 10:44:12;;;;;;;12.00;5.00;;;;;;;17.78;100.00;101035.44;5261753;28;20020;-73
2022/09/30 10:46:47;;;;;;;3.95;2.03;;;;;;;17.45;100.00;101031.81;5270576;28;20392;-72
2022/09/30 10:49:29;;;;;;;4.20;1.67;;;;;;;17.11;100.00;101030.91;5270791;28;20101;-72
2022/09/30 10:52:00;;;;;;;3.17;1.40;;;;;;;17.34;100.00;101033.28;5272206;28;20785;-72
2022/09/30 10:54:50;;;;;;;7.63;1.90;;;;;;;17.32;100.00;101035.38;5273948;28;20020;-72
2022/09/30 10:57:31;;;;;;;8.05;2.17;;;;;;;17.61;100.00;101029.53;5272643;28;20481;-72
2022/09/30 11:00:17;;;;;;;13.38;3.47;;;;;;;17.88;100.00;101032.28;5272031;28;20024;-72
2022/09/30 11:03:02;;;;;;;6.60;3.67;;;;;;;18.21;100.00;101034.94;5272225;28;20124;-72
2022/09/30 11:05:37;;;;;;;6.70;2.80;;;;;;;18.21;100.00;101031.41;5265239;28;20476;-72
2022/09/30 11:08:29;;;;;;;5.90;2.35;;;;;;;18.22;100.00;101028.47;5275763;28;20115;-72
2022/09/30 11:11:09;;;;;;;5.50;2.83;;;;;;;18.72;100.00;101023.31;5277960;28;20030;-72
2022/09/30 11:13:46;;;;;;;8.77;3.65;;;;;;;18.95;100.00;101020.09;5273937;28;20523;-72
2022/09/30 11:16:47;;;;;;;12.93;4.65;;;;;;;18.61;100.00;101015.81;5269619;28;20107;-72
2022/09/30 11:19:23;;;;;;;18.75;11.15;;;;;;;18.42;100.00;101014.84;5267421;28;20054;-72
2022/09/30 11:22:29;;;;;;;7.30;5.30;;;;;;;18.40;100.00;101022.38;5275063;28;20027;-72
2022/09/30 11:24:59;;;;;;;10.17;5.07;;;;;;;18.56;100.00;101010.19;5270399;28;20096;-72
2022/09/30 11:27:48;;;;;;;10.48;7.63;;;;;;;18.46;100.00;101007.94;5280057;28;20277;-72
2022/09/30 11:30:33;;;;;;;8.85;6.20;;;;;;;18.09;100.00;101014.94;5268597;28;20031;-72
2022/09/30 11:33:07;;;;;;;;;;;;;;;17.69;100.00;101014.94;5276836;28;20455;-72
2022/09/30 11:35:41;;;;;;;7.63;3.90;;;;;;;17.53;100.00;101010.78;5279837;28;19922;-72
2022/09/30 11:38:33;;;;;;;6.47;3.72;;;;;;;17.70;100.00;101016.59;5275787;27;20020;-72
2022/09/30 11:41:27;;;;;;;6.22;3.10;;;;;;;17.85;100.00;101011.81;5274474;28;20027;-72
2022/09/30 11:44:13;;;;;;;5.15;2.53;;;;;;;17.71;100.00;101001.97;5269665;28;20020;-72
2022/09/30 11:46:54;;;;;;;4.97;2.75;;;;;;;18.26;100.00;101004.44;5273230;28;20115;-72
2022/09/30 11:49:31;;;;;;;5.55;2.60;;;;;;;18.24;100.00;100996.53;5277068;28;20016;-72
2022/09/30 11:52:01;;;;;;;6.13;3.03;;;;;;;18.28;100.00;101002.38;5277076;28;20369;-72
2022/09/30 11:54:50;;;;;;;5.32;2.85;;;;;;;18.13;100.00;100997.19;5276567;28;20034;-72
2022/09/30 11:57:43;;;;;;;5.60;2.50;;;;;;;18.42;100.00;100995.00;5271901;28;20008;-72